createdAt,value
2019-02-07T00:00:22.429Z,101133.06
2019-02-07T00:02:50.700Z,101123.34
2019-02-07T00:05:18.946Z,101115.92
2019-02-07T00:07:47.220Z,101110.33
2019-02-07T00:10:19.791Z,101103.77
2019-02-07T00:12:48.067Z,101097.25
2019-02-07T00:15:16.845Z,101106.81
2019-02-07T00:17:45.134Z,101102.41
2019-02-07T00:20:19.974Z,101092.66
2019-02-07T00:22:48.316Z,101088.58
2019-02-07T00:25:16.752Z,101073.95
2019-02-07T00:27:45.019Z,101073.47
2019-02-07T00:30:16.685Z,101061.88
2019-02-07T00:32:44.951Z,101060.98
2019-02-07T00:35:13.280Z,101060.98
2019-02-07T00:37:41.552Z,101048.18
2019-02-07T00:40:18.844Z,101052.39
2019-02-07T00:42:47.387Z,101048.73
2019-02-07T00:45:18.152Z,101040.36
2019-02-07T00:47:46.426Z,101044.66
2019-02-07T00:50:18.236Z,101036.95
2019-02-07T00:52:46.575Z,101035.01
2019-02-07T00:55:15.966Z,101036.83
2019-02-07T00:57:44.432Z,101023.83
2019-02-07T01:00:16.129Z,101025.89
2019-02-07T01:02:44.454Z,101019.53
2019-02-07T01:05:13.655Z,101014.14
2019-02-07T01:07:42.055Z,101016.05
2019-02-07T01:10:15.824Z,101016.90
2019-02-07T01:12:44.164Z,101008.92
2019-02-07T01:15:13.283Z,101000.89
2019-02-07T01:17:41.546Z,100997.38
2019-02-07T01:20:15.260Z,100998.11
2019-02-07T01:22:43.592Z,100991.53
2019-02-07T01:25:15.234Z,100987.77
2019-02-07T01:27:43.497Z,100990.64
2019-02-07T01:30:20.004Z,100978.50
2019-02-07T01:32:48.269Z,100977.85
2019-02-07T01:35:16.599Z,100975.54
2019-02-07T01:37:44.863Z,100961.20
2019-02-07T01:40:15.544Z,100957.88
2019-02-07T01:42:43.827Z,100956.72
2019-02-07T01:45:17.215Z,100967.67
2019-02-07T01:47:45.563Z,100966.23
2019-02-07T01:50:15.866Z,100964.85
2019-02-07T01:52:44.126Z,100957.97
2019-02-07T01:55:12.455Z,100953.42
2019-02-07T01:57:40.794Z,100948.48
2019-02-07T02:00:12.052Z,100939.66
2019-02-07T02:02:40.486Z,100935.98
2019-02-07T02:05:11.185Z,100930.06
2019-02-07T02:07:39.960Z,100927.27
2019-02-07T02:10:22.767Z,100919.05
2019-02-07T02:12:51.100Z,100913.14
2019-02-07T02:15:24.589Z,100909.66
2019-02-07T02:17:50.753Z,100903.18
2019-02-07T02:20:23.397Z,100904.07
2019-02-07T02:22:52.111Z,100897.02
2019-02-07T02:25:20.440Z,100895.20
2019-02-07T02:27:48.691Z,100888.59
2019-02-07T02:30:28.470Z,100888.69
2019-02-07T02:32:56.722Z,100886.06
2019-02-07T02:35:25.006Z,100870.39
2019-02-07T02:37:53.272Z,100869.70
2019-02-07T02:40:21.707Z,100866.59
2019-02-07T02:42:50.038Z,100855.87
2019-02-07T02:45:20.242Z,100848.38
2019-02-07T02:47:49.038Z,100855.02
2019-02-07T02:50:19.019Z,100852.88
2019-02-07T02:52:47.284Z,100857.16
2019-02-07T02:55:22.974Z,100850.36
2019-02-07T02:57:51.229Z,100844.82
2019-02-07T03:00:21.136Z,100845.47
2019-02-07T03:02:51.054Z,100828.16
2019-02-07T03:05:32.957Z,100823.83
2019-02-07T03:08:02.863Z,100808.73
2019-02-07T03:10:48.680Z,100830.42
2019-02-07T03:13:33.257Z,100825.52
2019-02-07T03:16:08.682Z,100807.44
2019-02-07T03:18:47.246Z,100792.87
2019-02-07T03:21:33.448Z,100809.42
2019-02-07T03:24:03.360Z,100802.02
2019-02-07T03:26:33.278Z,100789.84
2019-02-07T03:29:19.128Z,100793.00
2019-02-07T03:32:06.861Z,100780.83
2019-02-07T03:34:36.794Z,100770.64
2019-02-07T03:37:22.393Z,100768.85
2019-02-07T03:39:58.050Z,100758.83
2019-02-07T03:42:33.542Z,100759.63
2019-02-07T03:45:18.298Z,100765.45
2019-02-07T03:48:04.084Z,100751.05
2019-02-07T03:50:48.783Z,100749.20
2019-02-07T03:53:34.863Z,100747.09
2019-02-07T03:56:04.782Z,100725.25
2019-02-07T03:58:34.670Z,100693.78
2019-02-07T04:01:10.229Z,100699.25
2019-02-07T04:03:49.449Z,100707.95
2019-02-07T04:06:19.360Z,100714.75
2019-02-07T04:08:49.262Z,100720.57
2019-02-07T04:11:24.551Z,100700.31
2019-02-07T04:14:10.606Z,100700.92
2019-02-07T04:16:40.506Z,100700.77
2019-02-07T04:19:13.295Z,100683.78
2019-02-07T04:21:49.130Z,100676.17
2019-02-07T04:24:19.039Z,100686.09
2019-02-07T04:26:48.940Z,100667.57
2019-02-07T04:29:27.675Z,100672.22
2019-02-07T04:32:00.299Z,100673.95
2019-02-07T04:34:30.196Z,100664.98
2019-02-07T04:37:03.061Z,100661.59
2019-02-07T04:39:48.898Z,100652.49
2019-02-07T04:42:21.220Z,100650.97
2019-02-07T04:45:06.771Z,100646.88
2019-02-07T04:47:39.375Z,100640.70
2019-02-07T04:50:14.298Z,100633.83
2019-02-07T04:52:49.921Z,100631.39
2019-02-07T04:55:22.479Z,100635.67
2019-02-07T04:57:52.375Z,100625.59
2019-02-07T05:00:22.269Z,100627.23
2019-02-07T05:02:52.170Z,100622.83
2019-02-07T05:05:40.149Z,100612.16
2019-02-07T05:08:26.389Z,100603.47
2019-02-07T05:10:56.298Z,100608.44
2019-02-07T05:13:37.695Z,100588.37
2019-02-07T05:16:16.352Z,100588.45
2019-02-07T05:18:54.760Z,100587.83
2019-02-07T05:21:40.885Z,100588.50
2019-02-07T05:24:13.710Z,100571.16
2019-02-07T05:26:46.559Z,100576.59
2019-02-07T05:29:16.454Z,100577.05
2019-02-07T05:32:02.023Z,100561.61
2019-02-07T05:34:40.961Z,100549.97
2019-02-07T05:37:13.596Z,100546.89
2019-02-07T05:39:59.530Z,100556.59
2019-02-07T05:42:45.718Z,100545.03
2019-02-07T05:45:15.624Z,100545.67
2019-02-07T05:47:47.976Z,100527.25
2019-02-07T05:50:20.774Z,100532.66
2019-02-07T05:52:59.789Z,100523.48
2019-02-07T05:55:35.395Z,100524.17
2019-02-07T05:58:21.234Z,100521.28
2019-02-07T06:01:08.995Z,100511.83
2019-02-07T06:03:39.001Z,100506.77
2019-02-07T06:06:20.745Z,100505.74
2019-02-07T06:08:59.505Z,100509.66
2019-02-07T06:11:45.667Z,100501.19
2019-02-07T06:14:33.451Z,100498.97
2019-02-07T06:17:03.351Z,100498.92
2019-02-07T06:19:38.718Z,100494.59
2019-02-07T06:22:20.669Z,100483.59
2019-02-07T06:24:59.052Z,100484.03
2019-02-07T06:27:44.085Z,100471.42
2019-02-07T06:30:22.492Z,100464.58
2019-02-07T06:33:08.293Z,100462.84
2019-02-07T06:35:40.642Z,100455.41
2019-02-07T06:38:13.235Z,100439.22
2019-02-07T06:40:49.058Z,100439.22
2019-02-07T06:43:18.993Z,100429.65
2019-02-07T06:46:03.470Z,100429.11
2019-02-07T06:48:33.407Z,100428.53
2019-02-07T06:51:09.304Z,100424.34
2019-02-07T06:53:54.071Z,100422.11
2019-02-07T06:56:24.018Z,100414.84
2019-02-07T06:59:02.913Z,100406.66
2019-02-07T07:01:48.518Z,100412.67
2019-02-07T07:04:18.420Z,100409.23
2019-02-07T07:06:48.323Z,100414.84
2019-02-07T07:09:23.910Z,100407.50
2019-02-07T07:11:56.594Z,100399.69
2019-02-07T07:14:26.514Z,100399.37
2019-02-07T07:16:56.437Z,100396.21
2019-02-07T07:19:29.073Z,100386.33
2019-02-07T07:22:08.077Z,100390.48
2019-02-07T07:24:38.278Z,100383.40
2019-02-07T07:27:24.105Z,100376.45
2019-02-07T07:29:56.668Z,100371.73
2019-02-07T07:32:26.590Z,100357.34
2019-02-07T07:35:11.572Z,100362.50
2019-02-07T07:37:53.202Z,100362.64
2019-02-07T07:40:31.815Z,100350.48
2019-02-07T07:43:01.726Z,100347.50
2019-02-07T07:45:31.683Z,100351.95
2019-02-07T07:48:19.754Z,100344.55
2019-02-07T07:51:05.753Z,100332.88
2019-02-07T07:53:51.648Z,100329.45
2019-02-07T07:56:27.335Z,100327.62
2019-02-07T07:59:03.028Z,100334.16
2019-02-07T08:01:44.753Z,100327.30
2019-02-07T08:04:30.897Z,100316.56
2019-02-07T08:07:19.189Z,100313.58
2019-02-07T08:10:05.029Z,100313.90
2019-02-07T08:12:50.876Z,100306.78
2019-02-07T08:15:32.959Z,100307.63
2019-02-07T08:18:02.911Z,100308.23
2019-02-07T08:20:48.785Z,100299.69
2019-02-07T08:23:18.674Z,100299.69
2019-02-07T08:25:51.090Z,100299.02
2019-02-07T08:28:32.851Z,100299.02
2019-02-07T08:31:08.789Z,100293.90
2019-02-07T08:33:39.383Z,100290.67
2019-02-07T08:36:24.864Z,100284.97
2019-02-07T08:38:57.844Z,100273.43
2019-02-07T08:41:36.528Z,100270.55
2019-02-07T08:44:14.151Z,100277.66
2019-02-07T08:47:00.191Z,100271.94
2019-02-07T08:49:46.402Z,100267.17
2019-02-07T08:52:31.128Z,100266.75
2019-02-07T08:55:01.062Z,100261.48
2019-02-07T08:57:31.335Z,100256.80
2019-02-07T09:00:19.375Z,100255.36
2019-02-07T09:02:55.010Z,100257.05
2019-02-07T09:05:27.879Z,100248.80
2019-02-07T09:08:13.689Z,100243.33
2019-02-07T09:10:43.607Z,100239.34
2019-02-07T09:13:13.501Z,100243.73
2019-02-07T09:15:46.093Z,100240.24
2019-02-07T09:18:32.164Z,100240.74
2019-02-07T09:21:07.835Z,100241.04
2019-02-07T09:23:40.799Z,100250.64
2019-02-07T09:26:13.659Z,100243.13
2019-02-07T09:28:45.989Z,100242.09
2019-02-07T09:31:31.840Z,100236.21
2019-02-07T09:34:07.784Z,100229.15
2019-02-07T09:36:46.257Z,100226.77
2019-02-07T09:39:31.105Z,100224.19
2019-02-07T09:42:18.616Z,100218.17
2019-02-07T09:44:48.526Z,100207.81
2019-02-07T09:47:27.231Z,100209.36
2019-02-07T09:50:02.620Z,100211.70
2019-02-07T09:52:38.341Z,100212.94
2019-02-07T09:55:10.786Z,100208.66
2019-02-07T09:57:46.268Z,100202.32
2019-02-07T10:00:28.661Z,100216.84
2019-02-07T10:02:58.735Z,100211.11
2019-02-07T10:05:34.691Z,100212.41
2019-02-07T10:08:20.538Z,100205.14
2019-02-07T10:10:53.164Z,100201.06
2019-02-07T10:13:25.723Z,100210.13
2019-02-07T10:15:55.615Z,100205.28
2019-02-07T10:18:32.836Z,100207.20
2019-02-07T10:21:13.102Z,100207.63
2019-02-07T10:23:43.547Z,100202.42
2019-02-07T10:26:29.595Z,100201.75
2019-02-07T10:29:08.352Z,100204.98
2019-02-07T10:31:54.428Z,100197.05
2019-02-07T10:34:26.748Z,100199.14
2019-02-07T10:36:59.357Z,100195.77
2019-02-07T10:39:37.742Z,100197.81
2019-02-07T10:42:19.163Z,100183.22
2019-02-07T10:44:58.038Z,100189.91
2019-02-07T10:47:33.645Z,100175.34
2019-02-07T10:50:21.276Z,100170.49
2019-02-07T10:52:53.861Z,100172.03
2019-02-07T10:55:23.762Z,100171.05
2019-02-07T10:57:53.661Z,100169.69
2019-02-07T11:00:39.946Z,100164.95
2019-02-07T11:03:12.356Z,100156.48
2019-02-07T11:05:58.289Z,100154.27
2019-02-07T11:08:44.354Z,100155.17
2019-02-07T11:11:14.258Z,100150.07
2019-02-07T11:13:51.258Z,100158.63
2019-02-07T11:16:24.477Z,100154.58
2019-02-07T11:18:55.788Z,100143.47
2019-02-07T11:21:43.587Z,100147.21
2019-02-07T11:24:31.052Z,100145.70
2019-02-07T11:27:00.956Z,100137.42
2019-02-07T11:29:42.423Z,100128.31
2019-02-07T11:32:28.217Z,100128.50
2019-02-07T11:34:58.116Z,100127.38
2019-02-07T11:37:36.908Z,100123.64
2019-02-07T11:40:25.253Z,100126.75
2019-02-07T11:43:10.313Z,100124.87
2019-02-07T11:45:56.233Z,100127.58
2019-02-07T11:48:42.452Z,100118.77
2019-02-07T11:51:28.001Z,100112.48
2019-02-07T11:54:12.398Z,100120.91
2019-02-07T11:56:42.309Z,100108.54
2019-02-07T11:59:12.218Z,100114.76
2019-02-07T12:02:08.574Z,100112.17
2019-02-07T12:04:29.865Z,100108.22
2019-02-07T12:06:59.765Z,100101.61
2019-02-07T12:09:32.480Z,100097.56
2019-02-07T12:12:08.388Z,100092.98
2019-02-07T12:14:38.281Z,100100.57
2019-02-07T12:17:14.085Z,100100.63
2019-02-07T12:19:59.815Z,100096.87
2019-02-07T12:22:29.725Z,100076.99
2019-02-07T12:25:05.388Z,100076.66
2019-02-07T12:27:35.309Z,100080.67
2019-02-07T12:30:20.224Z,100066.11
2019-02-07T12:33:06.048Z,100069.48
2019-02-07T12:35:51.884Z,100068.44
2019-02-07T12:38:24.432Z,100078.21
2019-02-07T12:40:59.972Z,100063.17
2019-02-07T12:43:32.434Z,100063.19
2019-02-07T12:46:05.275Z,100060.87
2019-02-07T12:48:51.405Z,100047.13
2019-02-07T12:51:24.208Z,100047.73
2019-02-07T12:54:10.095Z,100056.69
2019-02-07T12:56:40.003Z,100057.06
2019-02-07T12:59:09.920Z,100053.78
2019-02-07T13:01:48.478Z,100050.70
2019-02-07T13:04:18.380Z,100044.50
2019-02-07T13:06:51.262Z,100040.37
2019-02-07T13:09:23.590Z,100037.91
2019-02-07T13:12:09.269Z,100034.61
2019-02-07T13:14:42.215Z,100034.42
2019-02-07T13:17:30.082Z,100040.84
2019-02-07T13:20:02.786Z,100033.72
2019-02-07T13:22:32.689Z,100042.89
2019-02-07T13:25:02.949Z,100032.91
2019-02-07T13:27:44.824Z,100036.65
2019-02-07T13:30:26.373Z,100040.39
2019-02-07T13:32:58.653Z,100050.64
2019-02-07T13:35:36.985Z,100039.88
2019-02-07T13:38:09.352Z,100043.60
2019-02-07T13:40:39.263Z,100041.23
2019-02-07T13:43:12.220Z,100048.42
2019-02-07T13:45:42.136Z,100047.88
2019-02-07T13:48:12.023Z,100051.33
2019-02-07T13:50:47.613Z,100053.58
2019-02-07T13:53:23.463Z,100051.35
2019-02-07T13:55:55.995Z,100054.25
2019-02-07T13:58:25.921Z,100036.25
2019-02-07T14:00:55.822Z,100044.14
2019-02-07T14:03:25.712Z,100048.94
2019-02-07T14:06:11.559Z,100053.22
2019-02-07T14:08:47.189Z,100050.55
2019-02-07T14:11:19.709Z,100046.78
2019-02-07T14:13:58.571Z,100053.68
2019-02-07T14:16:40.280Z,100050.81
2019-02-07T14:19:15.740Z,100053.50
2019-02-07T14:21:54.493Z,100062.78
2019-02-07T14:24:27.418Z,100056.81
2019-02-07T14:27:13.284Z,100051.39
2019-02-07T14:29:45.901Z,100060.67
2019-02-07T14:32:16.050Z,100052.19
2019-02-07T14:34:54.774Z,100051.48
2019-02-07T14:37:40.912Z,100052.16
2019-02-07T14:40:27.610Z,100051.48
2019-02-07T14:43:00.274Z,100045.89
2019-02-07T14:45:30.262Z,100054.33
2019-02-07T14:47:58.510Z,100066.97
2019-02-07T14:50:26.760Z,100066.23
2019-02-07T14:52:55.007Z,100070.14
2019-02-07T14:55:23.453Z,100076.19
2019-02-07T14:57:51.692Z,100083.86
2019-02-07T15:00:22.896Z,100087.33
2019-02-07T15:02:51.161Z,100077.36
2019-02-07T15:05:19.480Z,100069.92
2019-02-07T15:07:47.718Z,100066.64
2019-02-07T15:10:18.401Z,100076.30
2019-02-07T15:12:47.382Z,100076.52
2019-02-07T15:15:21.016Z,100085.32
2019-02-07T15:17:49.327Z,100079.73
2019-02-07T15:20:25.849Z,100088.98
2019-02-07T15:22:47.613Z,100091.62
2019-02-07T15:25:16.204Z,100089.14
2019-02-07T15:27:44.527Z,100084.23
2019-02-07T15:30:22.113Z,100082.80
2019-02-07T15:32:50.370Z,100083.19
2019-02-07T15:35:24.727Z,100077.00
2019-02-07T15:37:53.227Z,100066.97
2019-02-07T15:40:27.298Z,100072.69
2019-02-07T15:42:55.664Z,100068.80
2019-02-07T15:45:24.259Z,100076.73
2019-02-07T15:47:52.522Z,100069.92
2019-02-07T15:50:23.293Z,100072.46
2019-02-07T15:52:53.156Z,100062.09
2019-02-07T15:55:21.474Z,100056.09
2019-02-07T15:57:49.744Z,100054.00
2019-02-07T16:00:22.264Z,100057.02
2019-02-07T16:02:51.084Z,100064.09
2019-02-07T16:05:19.351Z,100066.70
2019-02-07T16:07:47.969Z,100068.45
2019-02-07T16:10:17.778Z,100065.28
2019-02-07T16:12:46.047Z,100063.25
2019-02-07T16:15:14.859Z,100068.80
2019-02-07T16:17:43.141Z,100069.38
2019-02-07T16:20:14.432Z,100077.28
2019-02-07T16:22:42.958Z,100077.67
2019-02-07T16:25:13.547Z,100081.03
2019-02-07T16:27:41.828Z,100086.00
2019-02-07T16:30:15.050Z,100089.90
2019-02-07T16:32:43.406Z,100089.75
2019-02-07T16:35:13.298Z,100088.22
2019-02-07T16:37:41.623Z,100091.81
2019-02-07T16:40:12.086Z,100089.13
2019-02-07T16:42:40.326Z,100090.43
2019-02-07T16:45:14.486Z,100085.16
2019-02-07T16:47:42.739Z,100087.52
2019-02-07T16:50:16.941Z,100094.28
2019-02-07T16:52:45.198Z,100093.44
2019-02-07T16:55:13.548Z,100096.34
2019-02-07T16:57:42.355Z,100093.13
2019-02-07T17:00:28.718Z,100093.05
2019-02-07T17:02:57.504Z,100095.88
2019-02-07T17:05:26.097Z,100105.34
2019-02-07T17:07:54.613Z,100091.45
2019-02-07T17:10:25.685Z,100098.92
2019-02-07T17:12:53.938Z,100103.81
2019-02-07T17:15:22.192Z,100094.26
2019-02-07T17:17:50.741Z,100090.75
2019-02-07T17:20:25.041Z,100093.67
2019-02-07T17:22:53.293Z,100090.45
2019-02-07T17:25:21.596Z,100090.47
2019-02-07T17:27:49.893Z,100092.68
2019-02-07T17:30:22.095Z,100091.00
2019-02-07T17:32:51.064Z,100099.84
2019-02-07T17:35:19.858Z,100102.00
2019-02-07T17:37:48.187Z,100093.89
2019-02-07T17:40:23.499Z,100091.14
2019-02-07T17:42:51.754Z,100095.19
2019-02-07T17:45:22.825Z,100099.59
2019-02-07T17:47:51.221Z,100093.59
2019-02-07T17:50:21.973Z,100081.90
2019-02-07T17:52:50.517Z,100080.11
2019-02-07T17:55:20.895Z,100076.32
2019-02-07T17:57:49.861Z,100087.53
2019-02-07T18:00:43.407Z,100080.04
2019-02-07T18:03:11.681Z,100080.30
2019-02-07T18:05:39.932Z,100078.16
2019-02-07T18:08:08.368Z,100073.88
2019-02-07T18:10:36.564Z,100071.32
2019-02-07T18:13:05.356Z,100069.28
2019-02-07T18:15:33.617Z,100068.14
2019-02-07T18:18:01.869Z,100062.86
2019-02-07T18:20:30.119Z,100060.04
2019-02-07T18:22:58.359Z,100057.95
2019-02-07T18:25:26.603Z,100070.81
2019-02-07T18:27:54.861Z,100074.56
2019-02-07T18:30:23.551Z,100074.39
2019-02-07T18:32:52.097Z,100073.56
2019-02-07T18:35:21.200Z,100081.41
2019-02-07T18:37:49.458Z,100078.76
2019-02-07T18:40:20.147Z,100063.02
2019-02-07T18:42:48.404Z,100055.92
2019-02-07T18:45:19.740Z,100081.28
2019-02-07T18:47:47.990Z,100066.36
2019-02-07T18:50:27.727Z,100069.50
2019-02-07T18:52:55.987Z,100072.50
2019-02-07T18:55:24.241Z,100068.60
2019-02-07T18:57:52.565Z,100064.70
2019-02-07T19:00:24.714Z,100070.03
2019-02-07T19:02:52.949Z,100078.83
2019-02-07T19:05:22.948Z,100088.69
2019-02-07T19:07:51.327Z,100091.13
2019-02-07T19:10:24.361Z,100106.11
2019-02-07T19:12:53.654Z,100100.36
2019-02-07T19:15:30.746Z,100105.20
2019-02-07T19:17:59.001Z,100097.02
2019-02-07T19:20:28.562Z,100093.80
2019-02-07T19:22:57.044Z,100102.75
2019-02-07T19:25:25.292Z,100110.61
2019-02-07T19:27:54.551Z,100107.95
2019-02-07T19:30:28.894Z,100107.32
2019-02-07T19:32:57.375Z,100103.66
2019-02-07T19:35:25.632Z,100098.56
2019-02-07T19:37:58.242Z,100101.47
2019-02-07T19:40:28.272Z,100100.63
2019-02-07T19:42:56.875Z,100102.31
2019-02-07T19:45:27.465Z,100103.99
2019-02-07T19:47:58.619Z,100101.91
2019-02-07T19:50:27.712Z,100090.27
2019-02-07T19:52:57.020Z,100098.94
2019-02-07T19:55:30.215Z,100100.55
2019-02-07T19:58:00.274Z,100107.28
2019-02-07T20:00:31.055Z,100104.58
2019-02-07T20:02:59.575Z,100103.00
2019-02-07T20:05:27.979Z,100101.75
2019-02-07T20:07:56.234Z,100109.62
2019-02-07T20:10:28.536Z,100104.81
2019-02-07T20:12:57.101Z,100089.82
2019-02-07T20:15:30.547Z,100110.70
2019-02-07T20:18:00.015Z,100113.30
2019-02-07T20:20:28.471Z,100118.89
2019-02-07T20:22:56.795Z,100113.98
2019-02-07T20:25:26.220Z,100117.51
2019-02-07T20:27:54.482Z,100133.80
2019-02-07T20:30:25.331Z,100128.91
2019-02-07T20:32:53.860Z,100138.39
2019-02-07T20:35:22.116Z,100154.06
2019-02-07T20:37:51.626Z,100149.46
2019-02-07T20:40:23.128Z,100168.97
2019-02-07T20:42:51.377Z,100183.66
2019-02-07T20:45:20.850Z,100186.02
2019-02-07T20:47:49.115Z,100195.34
2019-02-07T20:50:28.259Z,100190.81
2019-02-07T20:52:57.878Z,100200.77
2019-02-07T20:55:26.789Z,100215.97
2019-02-07T20:57:56.505Z,100203.50
2019-02-07T21:00:30.562Z,100211.52
2019-02-07T21:02:58.976Z,100216.58
2019-02-07T21:05:28.389Z,100219.17
2019-02-07T21:07:59.945Z,100233.46
2019-02-07T21:10:30.902Z,100233.50
2019-02-07T21:12:59.216Z,100235.70
2019-02-07T21:15:27.644Z,100240.66
2019-02-07T21:17:56.918Z,100247.33
2019-02-07T21:20:27.574Z,100253.18
2019-02-07T21:22:56.665Z,100241.70
2019-02-07T21:25:28.084Z,100255.27
2019-02-07T21:27:56.338Z,100257.62
2019-02-07T21:30:29.643Z,100246.16
2019-02-07T21:32:57.888Z,100259.28
2019-02-07T21:35:26.676Z,100265.52
2019-02-07T21:37:55.796Z,100267.80
2019-02-07T21:40:31.518Z,100260.84
2019-02-07T21:43:00.304Z,100269.23
2019-02-07T21:45:28.922Z,100268.84
2019-02-07T21:47:58.499Z,100281.30
2019-02-07T21:50:29.333Z,100270.98
2019-02-07T21:52:57.602Z,100274.81
2019-02-07T21:55:27.784Z,100282.34
2019-02-07T21:57:56.375Z,100291.81
2019-02-07T22:00:38.506Z,100285.09
2019-02-07T22:03:10.952Z,100296.84
2019-02-07T22:05:39.197Z,100298.66
2019-02-07T22:08:08.286Z,100303.59
2019-02-07T22:10:36.705Z,100313.59
2019-02-07T22:13:05.715Z,100316.05
2019-02-07T22:15:33.974Z,100321.40
2019-02-07T22:18:02.231Z,100330.67
2019-02-07T22:20:30.960Z,100327.03
2019-02-07T22:22:59.572Z,100331.27
2019-02-07T22:25:27.816Z,100328.80
2019-02-07T22:27:56.136Z,100328.91
2019-02-07T22:30:35.420Z,100331.00
2019-02-07T22:33:05.317Z,100333.29
2019-02-07T22:35:33.560Z,100329.77
2019-02-07T22:38:01.810Z,100335.16
2019-02-07T22:40:30.066Z,100326.47
2019-02-07T22:42:59.746Z,100333.02
2019-02-07T22:45:28.146Z,100328.13
2019-02-07T22:47:56.382Z,100333.25
2019-02-07T22:50:27.226Z,100336.30
2019-02-07T22:52:57.134Z,100338.50
2019-02-07T22:55:25.828Z,100344.63
2019-02-07T22:57:54.075Z,100342.33
2019-02-07T23:00:36.171Z,100339.89
2019-02-07T23:03:12.093Z,100349.42
2019-02-07T23:05:40.335Z,100343.19
2019-02-07T23:08:08.741Z,100355.02
2019-02-07T23:10:37.056Z,100356.25
2019-02-07T23:13:06.143Z,100358.06
2019-02-07T23:15:34.387Z,100364.21
2019-02-07T23:18:02.646Z,100364.27
2019-02-07T23:20:30.902Z,100367.71
2019-02-07T23:23:04.942Z,100369.40
2019-02-07T23:25:29.129Z,100381.52
2019-02-07T23:27:57.650Z,100371.15
2019-02-07T23:30:25.910Z,100376.73
2019-02-07T23:32:54.157Z,100378.30
2019-02-07T23:35:22.419Z,100381.73
2019-02-07T23:37:50.657Z,100374.92
2019-02-07T23:40:20.155Z,100374.92
2019-02-07T23:42:48.765Z,100385.36
2019-02-07T23:45:19.418Z,100386.14
2019-02-07T23:47:47.660Z,100389.70
2019-02-07T23:50:16.048Z,100385.75
2019-02-07T23:52:44.387Z,100396.19
2019-02-07T23:55:13.756Z,100392.69
2019-02-07T23:57:42.062Z,100399.50
